Terminal Aerodrome Forecast
Issued by NWS

Home | Current Version | Previous Version | Text Only | Print | Product List | Glossary On
Versions: 1 2 3 4 5 6 7 8 9 10 11 12 13 14 15 16 17 18 19 20 21 22 23 24 25 26 27 28 29 30 31 32 33 34 35 36 37 38 39 40 41 42 43 44 45 46 47 48 49 50
000
FTUS43 KABR 200821 AAG
TAFATY
TAF AMD
KATY 200821Z 2008/2106 14010G16KT P6SM OVC008
     FM201100 14011G17KT 2SM -SN BR OVC004
     FM202100 23012KT P6SM BKN005
     FM210200 27012KT P6SM BKN010
     FM210300 29013G20KT P6SM BKN025=

USA.gov is the U.S. government's official web portal to all federal, state and local government web resources and services.